sensor_id;sensor_type;location;lat;lon;timestamp;temperature;humidity
9414;DHT22;4746;35.664;139.738;2023-01-10T00:01:40;6.60;51.40
9414;DHT22;4746;35.664;139.738;2023-01-10T00:04:07;6.60;51.50
9414;DHT22;4746;35.664;139.738;2023-01-10T00:06:35;6.60;51.00
9414;DHT22;4746;35.664;139.738;2023-01-10T00:09:03;6.70;50.50
9414;DHT22;4746;35.664;139.738;2023-01-10T00:11:30;6.60;49.00
9414;DHT22;4746;35.664;139.738;2023-01-10T00:14:16;6.60;49.40
9414;DHT22;4746;35.664;139.738;2023-01-10T00:16:44;6.60;48.60
9414;DHT22;4746;35.664;139.738;2023-01-10T00:19:12;6.70;48.70
9414;DHT22;4746;35.664;139.738;2023-01-10T00:21:40;6.70;47.60
9414;DHT22;4746;35.664;139.738;2023-01-10T00:24:09;6.60;47.30
9414;DHT22;4746;35.664;139.738;2023-01-10T00:26:55;6.70;47.90
9414;DHT22;4746;35.664;139.738;2023-01-10T00:29:26;6.80;48.00
9414;DHT22;4746;35.664;139.738;2023-01-10T00:31:54;6.80;47.10
9414;DHT22;4746;35.664;139.738;2023-01-10T00:34:23;6.80;46.10
9414;DHT22;4746;35.664;139.738;2023-01-10T00:36:50;6.80;45.50
9414;DHT22;4746;35.664;139.738;2023-01-10T00:39:18;6.80;45.60
9414;DHT22;4746;35.664;139.738;2023-01-10T00:41:46;6.80;43.60
9414;DHT22;4746;35.664;139.738;2023-01-10T00:44:32;6.80;43.70
9414;DHT22;4746;35.664;139.738;2023-01-10T00:46:59;6.90;44.10
9414;DHT22;4746;35.664;139.738;2023-01-10T00:49:27;6.90;43.30
9414;DHT22;4746;35.664;139.738;2023-01-10T00:51:54;6.90;43.10
9414;DHT22;4746;35.664;139.738;2023-01-10T00:54:23;6.90;41.20
9414;DHT22;4746;35.664;139.738;2023-01-10T00:56:51;7.00;40.50
9414;DHT22;4746;35.664;139.738;2023-01-10T00:59:19;6.90;38.60
9414;DHT22;4746;35.664;139.738;2023-01-10T01:01:46;6.90;38.00
9414;DHT22;4746;35.664;139.738;2023-01-10T01:04:14;6.80;36.90
9414;DHT22;4746;35.664;139.738;2023-01-10T01:06:45;6.70;36.10
9414;DHT22;4746;35.664;139.738;2023-01-10T01:09:16;6.70;36.20
9414;DHT22;4746;35.664;139.738;2023-01-10T01:11:43;6.80;36.90
9414;DHT22;4746;35.664;139.738;2023-01-10T01:14:11;6.80;35.90
9414;DHT22;4746;35.664;139.738;2023-01-10T01:16:38;6.90;35.30
9414;DHT22;4746;35.664;139.738;2023-01-10T01:19:06;6.90;34.90
9414;DHT22;4746;35.664;139.738;2023-01-10T01:21:33;6.90;35.10
9414;DHT22;4746;35.664;139.738;2023-01-10T01:24:01;7.00;34.40
9414;DHT22;4746;35.664;139.738;2023-01-10T01:26:30;7.00;34.60
9414;DHT22;4746;35.664;139.738;2023-01-10T01:28:58;7.00;33.90
9414;DHT22;4746;35.664;139.738;2023-01-10T01:31:25;7.10;34.40
9414;DHT22;4746;35.664;139.738;2023-01-10T01:33:53;7.10;34.00
9414;DHT22;4746;35.664;139.738;2023-01-10T01:36:20;7.20;34.20
9414;DHT22;4746;35.664;139.738;2023-01-10T01:38:48;7.20;33.90
9414;DHT22;4746;35.664;139.738;2023-01-10T01:41:15;7.20;33.60
9414;DHT22;4746;35.664;139.738;2023-01-10T01:44:06;7.20;33.50
9414;DHT22;4746;35.664;139.738;2023-01-10T01:46:46;7.30;33.50
9414;DHT22;4746;35.664;139.738;2023-01-10T01:49:21;7.30;32.70
9414;DHT22;4746;35.664;139.738;2023-01-10T01:51:54;7.40;31.80
9414;DHT22;4746;35.664;139.738;2023-01-10T01:54:29;7.50;32.30
9414;DHT22;4746;35.664;139.738;2023-01-10T01:57:08;7.50;32.40
9414;DHT22;4746;35.664;139.738;2023-01-10T01:59:47;7.50;31.10
9414;DHT22;4746;35.664;139.738;2023-01-10T02:02:23;7.50;30.40
9414;DHT22;4746;35.664;139.738;2023-01-10T02:05:01;7.40;30.30
9414;DHT22;4746;35.664;139.738;2023-01-10T02:07:35;7.50;30.30
9414;DHT22;4746;35.664;139.738;2023-01-10T02:13:03;7.50;31.20
9414;DHT22;4746;35.664;139.738;2023-01-10T02:15:32;7.50;30.00
9414;DHT22;4746;35.664;139.738;2023-01-10T02:18:01;7.60;29.90
9414;DHT22;4746;35.664;139.738;2023-01-10T02:20:52;7.70;30.00
9414;DHT22;4746;35.664;139.738;2023-01-10T02:35:52;8.10;29.60
9414;DHT22;4746;35.664;139.738;2023-01-10T02:38:57;8.10;28.60
9414;DHT22;4746;35.664;139.738;2023-01-10T02:42:08;8.10;28.20
9414;DHT22;4746;35.664;139.738;2023-01-10T02:45:02;8.10;28.00
9414;DHT22;4746;35.664;139.738;2023-01-10T02:47:49;8.20;28.10
9414;DHT22;4746;35.664;139.738;2023-01-10T02:53:54;8.40;28.00
9414;DHT22;4746;35.664;139.738;2023-01-10T03:05:05;8.40;26.90
9414;DHT22;4746;35.664;139.738;2023-01-10T03:07:49;8.40;27.30
9414;DHT22;4746;35.664;139.738;2023-01-10T03:10:55;8.40;27.20
9414;DHT22;4746;35.664;139.738;2023-01-10T03:15:58;8.70;27.30
9414;DHT22;4746;35.664;139.738;2023-01-10T03:18:32;8.80;27.60
9414;DHT22;4746;35.664;139.738;2023-01-10T03:21:10;8.80;28.30
9414;DHT22;4746;35.664;139.738;2023-01-10T03:23:40;8.90;28.20
9414;DHT22;4746;35.664;139.738;2023-01-10T03:26:09;8.90;28.20
9414;DHT22;4746;35.664;139.738;2023-01-10T03:29:05;9.00;28.40
9414;DHT22;4746;35.664;139.738;2023-01-10T03:31:47;8.90;28.20
9414;DHT22;4746;35.664;139.738;2023-01-10T03:34:18;8.90;28.20
9414;DHT22;4746;35.664;139.738;2023-01-10T03:37:13;8.90;28.50
9414;DHT22;4746;35.664;139.738;2023-01-10T03:40:22;9.00;28.50
9414;DHT22;4746;35.664;139.738;2023-01-10T03:46:18;9.10;29.10
9414;DHT22;4746;35.664;139.738;2023-01-10T03:49:11;9.30;29.00
9414;DHT22;4746;35.664;139.738;2023-01-10T03:51:41;9.30;29.60
9414;DHT22;4746;35.664;139.738;2023-01-10T03:54:10;9.50;30.20
9414;DHT22;4746;35.664;139.738;2023-01-10T03:56:48;9.70;30.90
9414;DHT22;4746;35.664;139.738;2023-01-10T03:59:23;9.60;30.10
9414;DHT22;4746;35.664;139.738;2023-01-10T04:01:53;9.60;29.90
9414;DHT22;4746;35.664;139.738;2023-01-10T04:04:21;9.60;29.70
9414;DHT22;4746;35.664;139.738;2023-01-10T04:06:48;9.80;30.40
9414;DHT22;4746;35.664;139.738;2023-01-10T04:09:16;9.90;30.30
9414;DHT22;4746;35.664;139.738;2023-01-10T04:11:44;9.90;29.90
9414;DHT22;4746;35.664;139.738;2023-01-10T04:14:11;10.00;29.20
9414;DHT22;4746;35.664;139.738;2023-01-10T04:16:39;9.90;29.50
9414;DHT22;4746;35.664;139.738;2023-01-10T04:19:06;10.10;28.80
9414;DHT22;4746;35.664;139.738;2023-01-10T04:21:34;10.00;28.70
9414;DHT22;4746;35.664;139.738;2023-01-10T04:24:01;10.20;28.70
9414;DHT22;4746;35.664;139.738;2023-01-10T04:26:29;10.10;28.40
9414;DHT22;4746;35.664;139.738;2023-01-10T04:28:58;10.30;29.50
9414;DHT22;4746;35.664;139.738;2023-01-10T04:31:27;10.50;29.30
9414;DHT22;4746;35.664;139.738;2023-01-10T04:33:54;10.90;29.60
9414;DHT22;4746;35.664;139.738;2023-01-10T04:36:22;11.10;29.20
9414;DHT22;4746;35.664;139.738;2023-01-10T04:38:49;11.20;29.20
9414;DHT22;4746;35.664;139.738;2023-01-10T04:41:17;11.60;29.00
9414;DHT22;4746;35.664;139.738;2023-01-10T04:43:44;11.80;29.10
9414;DHT22;4746;35.664;139.738;2023-01-10T04:46:12;11.70;28.80
9414;DHT22;4746;35.664;139.738;2023-01-10T04:48:39;11.80;28.20
9414;DHT22;4746;35.664;139.738;2023-01-10T04:51:07;12.10;28.80
9414;DHT22;4746;35.664;139.738;2023-01-10T04:53:35;12.20;28.30
9414;DHT22;4746;35.664;139.738;2023-01-10T04:56:04;12.00;27.80
9414;DHT22;4746;35.664;139.738;2023-01-10T04:58:34;11.80;27.70
9414;DHT22;4746;35.664;139.738;2023-01-10T05:01:11;11.80;28.10
9414;DHT22;4746;35.664;139.738;2023-01-10T05:03:51;11.70;27.90
9414;DHT22;4746;35.664;139.738;2023-01-10T05:06:22;11.70;28.20
9414;DHT22;4746;35.664;139.738;2023-01-10T05:08:50;11.70;28.00
9414;DHT22;4746;35.664;139.738;2023-01-10T05:11:17;11.80;28.20
9414;DHT22;4746;35.664;139.738;2023-01-10T05:13:45;12.00;28.70
9414;DHT22;4746;35.664;139.738;2023-01-10T05:16:12;12.30;28.80
9414;DHT22;4746;35.664;139.738;2023-01-10T05:18:40;12.40;28.70
9414;DHT22;4746;35.664;139.738;2023-01-10T05:21:10;12.20;28.70
9414;DHT22;4746;35.664;139.738;2023-01-10T05:23:39;12.00;28.70
9414;DHT22;4746;35.664;139.738;2023-01-10T05:26:15;11.90;28.90
9414;DHT22;4746;35.664;139.738;2023-01-10T05:28:46;11.90;28.60
9414;DHT22;4746;35.664;139.738;2023-01-10T05:31:17;12.10;29.10
9414;DHT22;4746;35.664;139.738;2023-01-10T05:33:49;12.40;29.20
9414;DHT22;4746;35.664;139.738;2023-01-10T05:36:17;12.70;29.20
9414;DHT22;4746;35.664;139.738;2023-01-10T05:38:46;12.90;29.10
9414;DHT22;4746;35.664;139.738;2023-01-10T05:41:13;12.90;28.60
9414;DHT22;4746;35.664;139.738;2023-01-10T05:43:41;12.90;28.10
9414;DHT22;4746;35.664;139.738;2023-01-10T05:46:09;12.90;28.10
9414;DHT22;4746;35.664;139.738;2023-01-10T05:48:36;12.90;28.10
9414;DHT22;4746;35.664;139.738;2023-01-10T05:51:04;12.60;27.50
9414;DHT22;4746;35.664;139.738;2023-01-10T05:53:32;12.30;27.80
9414;DHT22;4746;35.664;139.738;2023-01-10T05:56:00;12.50;28.10
9414;DHT22;4746;35.664;139.738;2023-01-10T05:58:29;12.60;28.30
9414;DHT22;4746;35.664;139.738;2023-01-10T06:00:57;12.90;27.90
9414;DHT22;4746;35.664;139.738;2023-01-10T06:03:25;12.90;27.60
9414;DHT22;4746;35.664;139.738;2023-01-10T06:05:55;12.60;26.90
9414;DHT22;4746;35.664;139.738;2023-01-10T06:08:24;12.50;27.30
9414;DHT22;4746;35.664;139.738;2023-01-10T06:10:51;12.60;27.60
9414;DHT22;4746;35.664;139.738;2023-01-10T06:13:19;12.90;27.90
9414;DHT22;4746;35.664;139.738;2023-01-10T06:15:47;12.80;27.60
9414;DHT22;4746;35.664;139.738;2023-01-10T06:18:15;12.50;27.70
9414;DHT22;4746;35.664;139.738;2023-01-10T06:20:43;12.60;27.80
9414;DHT22;4746;35.664;139.738;2023-01-10T06:23:11;12.20;27.90
9414;DHT22;4746;35.664;139.738;2023-01-10T06:25:39;12.40;28.20
9414;DHT22;4746;35.664;139.738;2023-01-10T06:28:08;12.60;27.90
9414;DHT22;4746;35.664;139.738;2023-01-10T06:30:37;12.60;28.00
9414;DHT22;4746;35.664;139.738;2023-01-10T06:33:09;12.90;28.00
9414;DHT22;4746;35.664;139.738;2023-01-10T06:35:38;12.90;27.90
9414;DHT22;4746;35.664;139.738;2023-01-10T06:38:10;12.30;28.10
9414;DHT22;4746;35.664;139.738;2023-01-10T06:40:39;12.20;28.60
9414;DHT22;4746;35.664;139.738;2023-01-10T06:43:07;12.00;28.70
9414;DHT22;4746;35.664;139.738;2023-01-10T06:45:37;12.10;28.80
9414;DHT22;4746;35.664;139.738;2023-01-10T06:48:05;12.00;28.30
9414;DHT22;4746;35.664;139.738;2023-01-10T06:50:40;12.00;28.50
9414;DHT22;4746;35.664;139.738;2023-01-10T06:53:09;12.00;28.40
9414;DHT22;4746;35.664;139.738;2023-01-10T06:55:37;12.20;28.60
9414;DHT22;4746;35.664;139.738;2023-01-10T06:58:04;12.00;28.60
9414;DHT22;4746;35.664;139.738;2023-01-10T07:00:32;11.80;28.70
9414;DHT22;4746;35.664;139.738;2023-01-10T07:03:00;11.90;28.80
9414;DHT22;4746;35.664;139.738;2023-01-10T07:05:28;12.00;28.70
9414;DHT22;4746;35.664;139.738;2023-01-10T07:07:56;12.00;28.70
9414;DHT22;4746;35.664;139.738;2023-01-10T07:10:27;12.00;28.40
9414;DHT22;4746;35.664;139.738;2023-01-10T07:12:55;11.80;28.00
9414;DHT22;4746;35.664;139.738;2023-01-10T07:15:24;11.50;28.40
9414;DHT22;4746;35.664;139.738;2023-01-10T07:17:55;11.40;28.70
9414;DHT22;4746;35.664;139.738;2023-01-10T07:20:24;11.20;28.70
9414;DHT22;4746;35.664;139.738;2023-01-10T07:22:56;10.70;28.80
9414;DHT22;4746;35.664;139.738;2023-01-10T07:25:27;10.30;29.10
9414;DHT22;4746;35.664;139.738;2023-01-10T07:27:55;10.20;30.00
9414;DHT22;4746;35.664;139.738;2023-01-10T07:30:25;10.10;31.00
9414;DHT22;4746;35.664;139.738;2023-01-10T07:32:54;9.70;32.00
9414;DHT22;4746;35.664;139.738;2023-01-10T07:35:23;9.40;32.40
9414;DHT22;4746;35.664;139.738;2023-01-10T07:37:56;9.10;32.90
9414;DHT22;4746;35.664;139.738;2023-01-10T07:40:25;8.80;33.40
9414;DHT22;4746;35.664;139.738;2023-01-10T07:43:00;8.60;33.80
9414;DHT22;4746;35.664;139.738;2023-01-10T07:45:30;8.00;33.60
9414;DHT22;4746;35.664;139.738;2023-01-10T07:47:59;7.80;34.40
9414;DHT22;4746;35.664;139.738;2023-01-10T07:50:31;7.60;35.10
9414;DHT22;4746;35.664;139.738;2023-01-10T07:53:02;7.40;35.50
9414;DHT22;4746;35.664;139.738;2023-01-10T07:55:31;7.30;35.90
9414;DHT22;4746;35.664;139.738;2023-01-10T07:58:01;7.20;35.90
9414;DHT22;4746;35.664;139.738;2023-01-10T08:00:30;7.20;36.20
9414;DHT22;4746;35.664;139.738;2023-01-10T08:02:58;7.10;36.00
9414;DHT22;4746;35.664;139.738;2023-01-10T08:05:25;7.00;36.40
9414;DHT22;4746;35.664;139.738;2023-01-10T08:07:54;6.90;35.80
9414;DHT22;4746;35.664;139.738;2023-01-10T08:10:26;6.90;36.20
9414;DHT22;4746;35.664;139.738;2023-01-10T08:12:53;6.90;36.40
9414;DHT22;4746;35.664;139.738;2023-01-10T08:15:22;6.90;36.50
9414;DHT22;4746;35.664;139.738;2023-01-10T08:18:02;6.80;36.40
9414;DHT22;4746;35.664;139.738;2023-01-10T08:20:29;6.80;36.60
9414;DHT22;4746;35.664;139.738;2023-01-10T08:22:58;6.80;36.70
9414;DHT22;4746;35.664;139.738;2023-01-10T08:25:28;6.80;37.10
9414;DHT22;4746;35.664;139.738;2023-01-10T08:27:56;6.80;37.10
9414;DHT22;4746;35.664;139.738;2023-01-10T08:30:27;6.70;37.30
9414;DHT22;4746;35.664;139.738;2023-01-10T08:32:55;6.70;37.30
9414;DHT22;4746;35.664;139.738;2023-01-10T08:35:27;6.70;37.40
9414;DHT22;4746;35.664;139.738;2023-01-10T08:38:18;6.70;37.70
9414;DHT22;4746;35.664;139.738;2023-01-10T08:40:50;6.60;37.60
9414;DHT22;4746;35.664;139.738;2023-01-10T08:43:17;6.60;37.60
9414;DHT22;4746;35.664;139.738;2023-01-10T08:45:45;6.60;37.90
9414;DHT22;4746;35.664;139.738;2023-01-10T08:48:12;6.60;37.90
9414;DHT22;4746;35.664;139.738;2023-01-10T08:50:40;6.50;37.60
9414;DHT22;4746;35.664;139.738;2023-01-10T08:53:08;6.60;38.60
9414;DHT22;4746;35.664;139.738;2023-01-10T08:55:37;6.50;38.10
9414;DHT22;4746;35.664;139.738;2023-01-10T08:58:04;6.50;38.20
9414;DHT22;4746;35.664;139.738;2023-01-10T09:00:32;6.50;38.30
9414;DHT22;4746;35.664;139.738;2023-01-10T09:02:59;6.50;38.40
9414;DHT22;4746;35.664;139.738;2023-01-10T09:05:37;6.40;38.40
9414;DHT22;4746;35.664;139.738;2023-01-10T09:08:05;6.40;38.60
9414;DHT22;4746;35.664;139.738;2023-01-10T09:10:32;6.30;38.60
9414;DHT22;4746;35.664;139.738;2023-01-10T09:13:00;6.20;38.70
9414;DHT22;4746;35.664;139.738;2023-01-10T09:15:33;6.20;39.00
9414;DHT22;4746;35.664;139.738;2023-01-10T09:18:04;6.20;38.80
9414;DHT22;4746;35.664;139.738;2023-01-10T09:20:35;6.20;39.40
9414;DHT22;4746;35.664;139.738;2023-01-10T09:23:06;6.20;40.20
9414;DHT22;4746;35.664;139.738;2023-01-10T09:25:38;6.30;40.70
9414;DHT22;4746;35.664;139.738;2023-01-10T09:28:06;6.40;41.00
9414;DHT22;4746;35.664;139.738;2023-01-10T09:30:35;6.40;41.70
9414;DHT22;4746;35.664;139.738;2023-01-10T09:33:04;6.40;41.50
9414;DHT22;4746;35.664;139.738;2023-01-10T09:35:35;6.40;41.90
9414;DHT22;4746;35.664;139.738;2023-01-10T09:38:06;6.30;41.80
9414;DHT22;4746;35.664;139.738;2023-01-10T09:43:29;6.30;42.60
9414;DHT22;4746;35.664;139.738;2023-01-10T09:46:34;6.20;42.30
9414;DHT22;4746;35.664;139.738;2023-01-10T09:51:52;6.30;43.30
9414;DHT22;4746;35.664;139.738;2023-01-10T09:54:35;6.40;42.20
9414;DHT22;4746;35.664;139.738;2023-01-10T09:57:17;6.40;42.70
9414;DHT22;4746;35.664;139.738;2023-01-10T09:59:47;6.50;42.90
9414;DHT22;4746;35.664;139.738;2023-01-10T10:02:41;6.60;42.40
9414;DHT22;4746;35.664;139.738;2023-01-10T10:05:23;6.50;41.60
9414;DHT22;4746;35.664;139.738;2023-01-10T10:08:00;6.40;41.80
9414;DHT22;4746;35.664;139.738;2023-01-10T10:10:38;6.40;41.70
9414;DHT22;4746;35.664;139.738;2023-01-10T10:22:46;6.20;42.70
9414;DHT22;4746;35.664;139.738;2023-01-10T10:40:21;6.00;42.50
9414;DHT22;4746;35.664;139.738;2023-01-10T10:42:56;5.90;42.50
9414;DHT22;4746;35.664;139.738;2023-01-10T10:46:00;5.80;42.70
9414;DHT22;4746;35.664;139.738;2023-01-10T10:48:32;5.80;43.50
9414;DHT22;4746;35.664;139.738;2023-01-10T10:54:00;5.90;44.10
9414;DHT22;4746;35.664;139.738;2023-01-10T10:56:32;5.90;44.20
9414;DHT22;4746;35.664;139.738;2023-01-10T10:59:03;5.90;43.70
9414;DHT22;4746;35.664;139.738;2023-01-10T11:01:32;6.00;43.40
9414;DHT22;4746;35.664;139.738;2023-01-10T11:04:10;6.00;43.80
9414;DHT22;4746;35.664;139.738;2023-01-10T11:06:42;6.00;44.40
9414;DHT22;4746;35.664;139.738;2023-01-10T11:09:20;6.10;44.80
9414;DHT22;4746;35.664;139.738;2023-01-10T11:12:29;6.10;45.40
9414;DHT22;4746;35.664;139.738;2023-01-10T11:14:58;6.20;44.10
9414;DHT22;4746;35.664;139.738;2023-01-10T11:17:32;6.10;42.70
9414;DHT22;4746;35.664;139.738;2023-01-10T11:20:16;6.10;42.60
9414;DHT22;4746;35.664;139.738;2023-01-10T11:22:50;6.20;45.80
9414;DHT22;4746;35.664;139.738;2023-01-10T11:25:21;6.10;42.70
9414;DHT22;4746;35.664;139.738;2023-01-10T11:27:52;6.20;44.70
9414;DHT22;4746;35.664;139.738;2023-01-10T11:30:28;6.10;43.20
9414;DHT22;4746;35.664;139.738;2023-01-10T11:33:03;6.10;42.50
9414;DHT22;4746;35.664;139.738;2023-01-10T11:35:37;6.10;43.70
9414;DHT22;4746;35.664;139.738;2023-01-10T11:41:04;6.10;42.00
9414;DHT22;4746;35.664;139.738;2023-01-10T11:43:48;6.10;42.50
9414;DHT22;4746;35.664;139.738;2023-01-10T11:46:20;6.20;43.00
9414;DHT22;4746;35.664;139.738;2023-01-10T11:49:10;6.30;42.90
9414;DHT22;4746;35.664;139.738;2023-01-10T11:51:57;6.30;42.90
9414;DHT22;4746;35.664;139.738;2023-01-10T11:54:29;6.30;41.90
9414;DHT22;4746;35.664;139.738;2023-01-10T11:59:58;6.30;41.90
9414;DHT22;4746;35.664;139.738;2023-01-10T12:02:34;6.30;41.60
9414;DHT22;4746;35.664;139.738;2023-01-10T12:05:18;6.30;43.10
9414;DHT22;4746;35.664;139.738;2023-01-10T12:08:00;6.30;41.70
9414;DHT22;4746;35.664;139.738;2023-01-10T12:10:33;6.30;43.40
9414;DHT22;4746;35.664;139.738;2023-01-10T12:13:15;6.20;41.80
9414;DHT22;4746;35.664;139.738;2023-01-10T12:15:43;6.20;42.00
9414;DHT22;4746;35.664;139.738;2023-01-10T12:18:12;6.20;42.80
9414;DHT22;4746;35.664;139.738;2023-01-10T12:20:47;6.20;41.70
9414;DHT22;4746;35.664;139.738;2023-01-10T12:23:22;6.10;42.70
9414;DHT22;4746;35.664;139.738;2023-01-10T12:25:53;6.10;42.60
9414;DHT22;4746;35.664;139.738;2023-01-10T12:28:22;6.10;42.70
9414;DHT22;4746;35.664;139.738;2023-01-10T12:30:57;6.20;43.30
9414;DHT22;4746;35.664;139.738;2023-01-10T12:33:34;6.10;41.90
9414;DHT22;4746;35.664;139.738;2023-01-10T12:39:16;6.30;44.20
9414;DHT22;4746;35.664;139.738;2023-01-10T12:45:18;6.50;43.00
9414;DHT22;4746;35.664;139.738;2023-01-10T12:48:11;6.60;42.00
9414;DHT22;4746;35.664;139.738;2023-01-10T12:51:06;6.60;42.10
9414;DHT22;4746;35.664;139.738;2023-01-10T12:53:56;6.70;41.90
9414;DHT22;4746;35.664;139.738;2023-01-10T12:56:29;6.70;43.20
9414;DHT22;4746;35.664;139.738;2023-01-10T13:02:20;6.80;43.00
9414;DHT22;4746;35.664;139.738;2023-01-10T13:04:56;6.70;42.00
9414;DHT22;4746;35.664;139.738;2023-01-10T13:07:31;6.80;41.50
9414;DHT22;4746;35.664;139.738;2023-01-10T13:10:02;6.70;43.10
9414;DHT22;4746;35.664;139.738;2023-01-10T13:12:39;6.70;41.70
9414;DHT22;4746;35.664;139.738;2023-01-10T13:15:26;6.80;41.50
9414;DHT22;4746;35.664;139.738;2023-01-10T13:18:13;6.90;44.40
9414;DHT22;4746;35.664;139.738;2023-01-10T13:21:09;6.90;41.80
9414;DHT22;4746;35.664;139.738;2023-01-10T13:23:50;6.90;41.40
9414;DHT22;4746;35.664;139.738;2023-01-10T13:26:23;6.90;41.70
9414;DHT22;4746;35.664;139.738;2023-01-10T13:29:01;6.90;41.10
9414;DHT22;4746;35.664;139.738;2023-01-10T13:31:33;6.90;41.30
9414;DHT22;4746;35.664;139.738;2023-01-10T13:34:10;6.90;41.00
9414;DHT22;4746;35.664;139.738;2023-01-10T13:36:51;6.90;41.00
9414;DHT22;4746;35.664;139.738;2023-01-10T14:03:51;6.20;42.70
9414;DHT22;4746;35.664;139.738;2023-01-10T14:11:51;6.10;43.00
9414;DHT22;4746;35.664;139.738;2023-01-10T14:14:36;6.00;42.90
9414;DHT22;4746;35.664;139.738;2023-01-10T14:17:21;6.00;42.50
9414;DHT22;4746;35.664;139.738;2023-01-10T14:22:40;5.90;41.70
9414;DHT22;4746;35.664;139.738;2023-01-10T14:25:35;5.90;42.00
9414;DHT22;4746;35.664;139.738;2023-01-10T14:28:14;5.80;41.90
9414;DHT22;4746;35.664;139.738;2023-01-10T14:31:19;5.80;42.00
9414;DHT22;4746;35.664;139.738;2023-01-10T14:33:51;5.80;42.20
9414;DHT22;4746;35.664;139.738;2023-01-10T14:36:24;5.70;41.90
9414;DHT22;4746;35.664;139.738;2023-01-10T14:39:03;5.70;42.20
9414;DHT22;4746;35.664;139.738;2023-01-10T14:41:42;5.70;42.30
9414;DHT22;4746;35.664;139.738;2023-01-10T14:44:28;5.70;42.40
9414;DHT22;4746;35.664;139.738;2023-01-10T14:47:30;5.70;42.50
9414;DHT22;4746;35.664;139.738;2023-01-10T14:50:00;5.70;42.30
9414;DHT22;4746;35.664;139.738;2023-01-10T14:52:41;5.70;42.30
9414;DHT22;4746;35.664;139.738;2023-01-10T14:55:12;5.70;42.00
9414;DHT22;4746;35.664;139.738;2023-01-10T14:57:59;5.80;42.30
9414;DHT22;4746;35.664;139.738;2023-01-10T15:00:30;5.70;42.20
9414;DHT22;4746;35.664;139.738;2023-01-10T15:03:00;5.70;41.70
9414;DHT22;4746;35.664;139.738;2023-01-10T15:05:45;5.70;41.90
9414;DHT22;4746;35.664;139.738;2023-01-10T15:08:26;5.80;41.80
9414;DHT22;4746;35.664;139.738;2023-01-10T15:11:08;5.70;41.80
9414;DHT22;4746;35.664;139.738;2023-01-10T15:13:59;5.80;42.10
9414;DHT22;4746;35.664;139.738;2023-01-10T15:16:37;5.80;41.80
9414;DHT22;4746;35.664;139.738;2023-01-10T15:19:17;5.80;41.90
9414;DHT22;4746;35.664;139.738;2023-01-10T15:21:48;5.80;42.00
9414;DHT22;4746;35.664;139.738;2023-01-10T15:24:35;5.80;42.10
9414;DHT22;4746;35.664;139.738;2023-01-10T15:27:06;5.80;42.30
9414;DHT22;4746;35.664;139.738;2023-01-10T15:29:41;5.80;42.00
9414;DHT22;4746;35.664;139.738;2023-01-10T15:32:33;5.80;42.10
9414;DHT22;4746;35.664;139.738;2023-01-10T15:35:06;5.90;42.30
9414;DHT22;4746;35.664;139.738;2023-01-10T15:37:39;5.80;41.40
9414;DHT22;4746;35.664;139.738;2023-01-10T15:40:23;5.80;42.00
9414;DHT22;4746;35.664;139.738;2023-01-10T15:45:57;5.80;42.20
9414;DHT22;4746;35.664;139.738;2023-01-10T15:48:36;5.70;41.60
9414;DHT22;4746;35.664;139.738;2023-01-10T15:51:19;5.70;41.70
9414;DHT22;4746;35.664;139.738;2023-01-10T15:56:41;5.60;41.60
9414;DHT22;4746;35.664;139.738;2023-01-10T15:59:39;5.70;41.60
9414;DHT22;4746;35.664;139.738;2023-01-10T16:02:31;5.60;41.60
9414;DHT22;4746;35.664;139.738;2023-01-10T16:05:15;5.60;41.70
9414;DHT22;4746;35.664;139.738;2023-01-10T16:07:45;5.60;41.80
9414;DHT22;4746;35.664;139.738;2023-01-10T16:10:25;5.60;42.00
9414;DHT22;4746;35.664;139.738;2023-01-10T16:13:14;5.60;41.70
9414;DHT22;4746;35.664;139.738;2023-01-10T16:16:00;5.60;42.00
9414;DHT22;4746;35.664;139.738;2023-01-10T16:18:30;5.60;42.10
9414;DHT22;4746;35.664;139.738;2023-01-10T16:21:01;5.60;42.80
9414;DHT22;4746;35.664;139.738;2023-01-10T16:23:33;5.60;42.20
9414;DHT22;4746;35.664;139.738;2023-01-10T16:26:05;5.50;42.00
9414;DHT22;4746;35.664;139.738;2023-01-10T16:28:35;5.60;42.30
9414;DHT22;4746;35.664;139.738;2023-01-10T16:31:07;5.50;42.40
9414;DHT22;4746;35.664;139.738;2023-01-10T16:33:40;5.60;42.60
9414;DHT22;4746;35.664;139.738;2023-01-10T16:36:17;5.60;42.60
9414;DHT22;4746;35.664;139.738;2023-01-10T16:38:46;5.50;42.50
9414;DHT22;4746;35.664;139.738;2023-01-10T16:41:14;5.50;42.40
9414;DHT22;4746;35.664;139.738;2023-01-10T16:44:01;5.50;42.40
9414;DHT22;4746;35.664;139.738;2023-01-10T16:46:29;5.50;42.80
9414;DHT22;4746;35.664;139.738;2023-01-10T16:48:58;5.50;42.50
9414;DHT22;4746;35.664;139.738;2023-01-10T16:51:28;5.50;42.70
9414;DHT22;4746;35.664;139.738;2023-01-10T16:54:01;5.50;42.50
9414;DHT22;4746;35.664;139.738;2023-01-10T16:56:29;5.50;42.60
9414;DHT22;4746;35.664;139.738;2023-01-10T16:58:58;5.50;42.50
9414;DHT22;4746;35.664;139.738;2023-01-10T17:01:29;5.50;42.60
9414;DHT22;4746;35.664;139.738;2023-01-10T17:04:16;5.50;42.90
9414;DHT22;4746;35.664;139.738;2023-01-10T17:06:50;5.50;43.00
9414;DHT22;4746;35.664;139.738;2023-01-10T17:09:25;5.40;42.90
9414;DHT22;4746;35.664;139.738;2023-01-10T17:14:34;5.30;43.00
9414;DHT22;4746;35.664;139.738;2023-01-10T17:17:04;5.30;43.00
9414;DHT22;4746;35.664;139.738;2023-01-10T17:19:32;5.30;43.00
9414;DHT22;4746;35.664;139.738;2023-01-10T17:22:02;5.30;43.10
9414;DHT22;4746;35.664;139.738;2023-01-10T17:24:30;5.30;43.30
9414;DHT22;4746;35.664;139.738;2023-01-10T17:26:58;5.40;43.50
9414;DHT22;4746;35.664;139.738;2023-01-10T17:29:26;5.40;43.40
9414;DHT22;4746;35.664;139.738;2023-01-10T17:31:55;5.40;43.30
9414;DHT22;4746;35.664;139.738;2023-01-10T17:34:23;5.40;43.30
9414;DHT22;4746;35.664;139.738;2023-01-10T17:36:51;5.40;43.30
9414;DHT22;4746;35.664;139.738;2023-01-10T17:39:18;5.40;43.30
9414;DHT22;4746;35.664;139.738;2023-01-10T17:41:46;5.40;43.30
9414;DHT22;4746;35.664;139.738;2023-01-10T17:44:13;5.40;43.40
9414;DHT22;4746;35.664;139.738;2023-01-10T17:46:41;5.40;43.30
9414;DHT22;4746;35.664;139.738;2023-01-10T17:49:08;5.30;43.10
9414;DHT22;4746;35.664;139.738;2023-01-10T17:51:36;5.30;43.30
9414;DHT22;4746;35.664;139.738;2023-01-10T17:54:04;5.30;43.20
9414;DHT22;4746;35.664;139.738;2023-01-10T17:56:31;5.30;43.20
9414;DHT22;4746;35.664;139.738;2023-01-10T17:58:59;5.30;43.30
9414;DHT22;4746;35.664;139.738;2023-01-10T18:01:26;5.30;43.60
9414;DHT22;4746;35.664;139.738;2023-01-10T18:03:54;5.20;43.40
9414;DHT22;4746;35.664;139.738;2023-01-10T18:06:22;5.30;43.60
9414;DHT22;4746;35.664;139.738;2023-01-10T18:08:49;5.20;43.60
9414;DHT22;4746;35.664;139.738;2023-01-10T18:11:17;5.20;43.70
9414;DHT22;4746;35.664;139.738;2023-01-10T18:13:45;5.20;43.70
9414;DHT22;4746;35.664;139.738;2023-01-10T18:16:12;5.20;43.70
9414;DHT22;4746;35.664;139.738;2023-01-10T18:18:40;5.20;43.90
9414;DHT22;4746;35.664;139.738;2023-01-10T18:21:16;5.20;44.20
9414;DHT22;4746;35.664;139.738;2023-01-10T18:23:45;5.10;44.10
9414;DHT22;4746;35.664;139.738;2023-01-10T18:26:14;5.10;44.20